Cooke City, Montana
Current Conditions -  °F | °C
As of 6:53 PM on Saturday 22 Nov 2014 (Local Time) from KLVM Reporting Station
Overcast Overcast  
Wind Chill: 33°   Ceiling: 7000
Heat Index: 38°   Visibility: 10mi
Dew Point: 17°   Wind: 6mph
Humidity: 43%   Direction: 350°N
Pressure: 29.59"   Gusts: NA
Location:  45.02°N, 109.94°W
Report Text: KLVM 230153Z AUTO 35005KT 10SM BKN070 OVC095 03/M08 A2959 RMK AO2 SLP025 T00331083
Loading
Personal Weather Stations






























Interactive Weather Map New forecast layout! Learn more

10-Day Weather Forecast

Advertisements
Track Severe Weather on mobile